METAR Data
IDs: Format: Raw Decoded Include TAF

Data at: 1441 UTC 21 Apr 2021

METAR for:K6B9 (Skaneateles Arpt, NY, US)
Text:K6B9 211435Z AUTO VRB06KT 1/2SM -SN BKN003 BKN007 00/00 A2977 RMK AO2
Temperature: 0.0°C ( 32°F)
Dewpoint: 0.0°C ( 32°F) [RH = 100%]
Pressure (altimeter):29.77 inches Hg (1008.2 mb)
Winds:variable direction winds at 7 MPH (6 knots; 3.1 m/s)
Visibility: 0.50 sm ( 0.80 km)
Ceiling:300 feet AGL
Clouds: broken clouds at 300 feet AGL, broken clouds at 700 feet AGL
Weather:-SN (light snow)
QC Flag:automated observation with no human augmentation
Text:K6B9 211415Z AUTO 00000KT 1SM -SN BKN005 M00/M00 A2977 RMK AO2
Temperature: 0.0°C ( 32°F)
Dewpoint: 0.0°C ( 32°F) [RH = 100%]
Pressure (altimeter):29.77 inches Hg (1008.2 mb)
Winds:calm
Visibility: 1.00 sm ( 1.61 km)
Ceiling:500 feet AGL
Clouds: broken clouds at 500 feet AGL
Weather:-SN (light snow)
QC Flag:automated observation with no human augmentation
Text:K6B9 211355Z AUTO VRB04KT 1 1/2SM -SN OVC005 M00/M00 A2977 RMK AO2 P0001
Temperature: 0.0°C ( 32°F)
Dewpoint: 0.0°C ( 32°F) [RH = 100%]
Pressure (altimeter):29.77 inches Hg (1008.2 mb)
Winds:variable direction winds at 5 MPH (4 knots; 2.1 m/s)
Visibility: 1.50 sm ( 2.41 km)
Ceiling:500 feet AGL
Clouds: overcast cloud deck at 500 feet AGL
Weather:-SN (light snow)
QC Flag:automated observation with no human augmentation
Text:K6B9 211335Z AUTO VRB05KT 1 1/2SM -SN OVC004 M00/M00 A2976 RMK AO2
Temperature: 0.0°C ( 32°F)
Dewpoint: 0.0°C ( 32°F) [RH = 100%]
Pressure (altimeter):29.76 inches Hg (1007.9 mb)
Winds:variable direction winds at 6 MPH (5 knots; 2.6 m/s)
Visibility: 1.50 sm ( 2.41 km)
Ceiling:400 feet AGL
Clouds: overcast cloud deck at 400 feet AGL
Weather:-SN (light snow)
QC Flag:automated observation with no human augmentation
Text:K6B9 211315Z AUTO VRB04G10KT 8SM -RA OVC003 M00/M00 A2975 RMK AO2
Temperature: 0.0°C ( 32°F)
Dewpoint: 0.0°C ( 32°F) [RH = 100%]
Pressure (altimeter):29.75 inches Hg (1007.5 mb)
Winds:variable direction winds at 5 MPH (4 knots; 2.1 m/s) gusting to 12 MPH (10 knots; 5.1 m/s)
Visibility: 8 sm ( 13 km)
Ceiling:300 feet AGL
Clouds: overcast cloud deck at 300 feet AGL
Weather:-RA (light rain)
QC Flag:automated observation with no human augmentation
Text:K6B9 211255Z AUTO 00000KT 10SM OVC003 M00/M00 A2976 RMK AO2
Temperature: 0.0°C ( 32°F)
Dewpoint: 0.0°C ( 32°F) [RH = 100%]
Pressure (altimeter):29.76 inches Hg (1007.9 mb)
Winds:calm
Visibility:10 or more sm (16+ km)
Ceiling:300 feet AGL
Clouds: overcast cloud deck at 300 feet AGL
QC Flag:automated observation with no human augmentation
Text:K6B9 211235Z AUTO VRB05G12KT 10SM OVC003 M00/M00 A2976 RMK AO2
Temperature: 0.0°C ( 32°F)
Dewpoint: 0.0°C ( 32°F) [RH = 100%]
Pressure (altimeter):29.76 inches Hg (1007.9 mb)
Winds:variable direction winds at 6 MPH (5 knots; 2.6 m/s) gusting to 14 MPH (12 knots; 6.2 m/s)
Visibility:10 or more sm (16+ km)
Ceiling:300 feet AGL
Clouds: overcast cloud deck at 300 feet AGL
QC Flag:automated observation with no human augmentation
Text:K6B9 211215Z AUTO VRB05G10KT 10SM OVC004 M00/M00 A2977 RMK AO2
Temperature: 0.0°C ( 32°F)
Dewpoint: 0.0°C ( 32°F) [RH = 100%]
Pressure (altimeter):29.77 inches Hg (1008.2 mb)
Winds:variable direction winds at 6 MPH (5 knots; 2.6 m/s) gusting to 12 MPH (10 knots; 5.1 m/s)
Visibility:10 or more sm (16+ km)
Ceiling:400 feet AGL
Clouds: overcast cloud deck at 400 feet AGL
QC Flag:automated observation with no human augmentation
Text:K6B9 211155Z AUTO VRB04KT 9SM OVC004 00/00 A2978 RMK AO2 P0004
Temperature: 0.0°C ( 32°F)
Dewpoint: 0.0°C ( 32°F) [RH = 100%]
Pressure (altimeter):29.78 inches Hg (1008.5 mb)
Winds:variable direction winds at 5 MPH (4 knots; 2.1 m/s)
Visibility: 9 sm ( 14 km)
Ceiling:400 feet AGL
Clouds: overcast cloud deck at 400 feet AGL
QC Flag:automated observation with no human augmentation
Text:K6B9 211135Z AUTO 01004KT 10SM -RA OVC006 00/00 A2978 RMK AO2
Temperature: 0.0°C ( 32°F)
Dewpoint: 0.0°C ( 32°F) [RH = 100%]
Pressure (altimeter):29.78 inches Hg (1008.5 mb)
Winds:from the N (10 degrees) at 5 MPH (4 knots; 2.1 m/s)
Visibility:10 or more sm (16+ km)
Ceiling:600 feet AGL
Clouds: overcast cloud deck at 600 feet AGL
Weather:-RA (light rain)
QC Flag:automated observation with no human augmentation
Text:K6B9 211115Z AUTO 02004G10KT 3SM -RA BKN005 OVC008 00/00 A2978 RMK AO2
Temperature: 0.0°C ( 32°F)
Dewpoint: 0.0°C ( 32°F) [RH = 100%]
Pressure (altimeter):29.78 inches Hg (1008.5 mb)
Winds:from the NNE (20 degrees) at 5 MPH (4 knots; 2.1 m/s) gusting to 12 MPH (10 knots; 5.1 m/s)
Visibility: 3 sm ( 5 km)
Ceiling:500 feet AGL
Clouds: broken clouds at 500 feet AGL, overcast cloud deck at 800 feet AGL
Weather:-RA (light rain)
QC Flag:automated observation with no human augmentation
Text:K6B9 211055Z AUTO VRB04G10KT 6SM -SN OVC005 00/00 A2976 RMK AO2
Temperature: 0.0°C ( 32°F)
Dewpoint: 0.0°C ( 32°F) [RH = 100%]
Pressure (altimeter):29.76 inches Hg (1007.9 mb)
Winds:variable direction winds at 5 MPH (4 knots; 2.1 m/s) gusting to 12 MPH (10 knots; 5.1 m/s)
Visibility: 6 sm ( 10 km)
Ceiling:500 feet AGL
Clouds: overcast cloud deck at 500 feet AGL
Weather:-SN (light snow)
QC Flag:automated observation with no human augmentation
Text:K6B9 211035Z AUTO 01008KT 330V030 3SM -UP OVC005 00/00 A2979 RMK AO2
Temperature: 0.0°C ( 32°F)
Dewpoint: 0.0°C ( 32°F) [RH = 100%]
Pressure (altimeter):29.79 inches Hg (1008.9 mb)
Winds:from the N (10 degrees) at 9 MPH (8 knots; 4.1 m/s)
Visibility: 3 sm ( 5 km)
Ceiling:500 feet AGL
Clouds: overcast cloud deck at 500 feet AGL
Weather:UP (unknown precipitation)
QC Flag:automated observation with no human augmentation
Text:K6B9 211015Z AUTO VRB06KT 5SM BR BKN006 OVC009 01/00 A2980 RMK AO2
Temperature: 1.0°C ( 34°F)
Dewpoint: 0.0°C ( 32°F) [RH = 93%]
Pressure (altimeter):29.80 inches Hg (1009.2 mb)
Winds:variable direction winds at 7 MPH (6 knots; 3.1 m/s)
Visibility: 5 sm ( 8 km)
Ceiling:600 feet AGL
Clouds: broken clouds at 600 feet AGL, overcast cloud deck at 900 feet AGL
Weather:BR (mist)
QC Flag:automated observation with no human augmentation
Text:K6B9 210955Z AUTO 36008KT 10SM OVC009 01/M00 A2980 RMK AO2
Temperature: 1.0°C ( 34°F)
Dewpoint: 0.0°C ( 32°F) [RH = 93%]
Pressure (altimeter):29.80 inches Hg (1009.2 mb)
Winds:from the N (360 degrees) at 9 MPH (8 knots; 4.1 m/s)
Visibility:10 or more sm (16+ km)
Ceiling:900 feet AGL
Clouds: overcast cloud deck at 900 feet AGL
QC Flag:automated observation with no human augmentation
Text:K6B9 210935Z AUTO 36008G13KT 10SM OVC008 01/00 A2981 RMK AO2
Temperature: 1.0°C ( 34°F)
Dewpoint: 0.0°C ( 32°F) [RH = 93%]
Pressure (altimeter):29.81 inches Hg (1009.6 mb)
Winds:from the N (360 degrees) at 9 MPH (8 knots; 4.1 m/s) gusting to 15 MPH (13 knots; 6.7 m/s)
Visibility:10 or more sm (16+ km)
Ceiling:800 feet AGL
Clouds: overcast cloud deck at 800 feet AGL
QC Flag:automated observation with no human augmentation
Text:K6B9 210915Z AUTO 34005KT 10SM OVC007 01/01 A2983 RMK AO2
Temperature: 1.0°C ( 34°F)
Dewpoint: 1.0°C ( 34°F) [RH = 100%]
Pressure (altimeter):29.83 inches Hg (1010.2 mb)
Winds:from the NNW (340 degrees) at 6 MPH (5 knots; 2.6 m/s)
Visibility:10 or more sm (16+ km)
Ceiling:700 feet AGL
Clouds: overcast cloud deck at 700 feet AGL
QC Flag:automated observation with no human augmentation
Text:K6B9 210855Z AUTO 35005KT 10SM OVC010 01/01 A2983 RMK AO2
Temperature: 1.0°C ( 34°F)
Dewpoint: 1.0°C ( 34°F) [RH = 100%]
Pressure (altimeter):29.83 inches Hg (1010.2 mb)
Winds:from the N (350 degrees) at 6 MPH (5 knots; 2.6 m/s)
Visibility:10 or more sm (16+ km)
Ceiling:1000 feet AGL
Clouds: overcast cloud deck at 1000 feet AGL
QC Flag:automated observation with no human augmentation
Text:K6B9 210835Z AUTO 36005KT 10SM OVC012 01/01 A2982 RMK AO2
Temperature: 1.0°C ( 34°F)
Dewpoint: 1.0°C ( 34°F) [RH = 100%]
Pressure (altimeter):29.82 inches Hg (1009.9 mb)
Winds:from the N (360 degrees) at 6 MPH (5 knots; 2.6 m/s)
Visibility:10 or more sm (16+ km)
Ceiling:1200 feet AGL
Clouds: overcast cloud deck at 1200 feet AGL
QC Flag:automated observation with no human augmentation
Text:K6B9 210815Z AUTO 00000KT 10SM OVC013 01/00 A2984 RMK AO2
Temperature: 1.0°C ( 34°F)
Dewpoint: 0.0°C ( 32°F) [RH = 93%]
Pressure (altimeter):29.84 inches Hg (1010.6 mb)
Winds:calm
Visibility:10 or more sm (16+ km)
Ceiling:1300 feet AGL
Clouds: overcast cloud deck at 1300 feet AGL
QC Flag:automated observation with no human augmentation
Text:K6B9 210755Z AUTO 01005KT 10SM OVC012 01/00 A2984 RMK AO2
Temperature: 1.0°C ( 34°F)
Dewpoint: 0.0°C ( 32°F) [RH = 93%]
Pressure (altimeter):29.84 inches Hg (1010.6 mb)
Winds:from the N (10 degrees) at 6 MPH (5 knots; 2.6 m/s)
Visibility:10 or more sm (16+ km)
Ceiling:1200 feet AGL
Clouds: overcast cloud deck at 1200 feet AGL
QC Flag:automated observation with no human augmentation
Text:K6B9 210735Z AUTO VRB04KT 10SM OVC012 01/00 A2985 RMK AO2
Temperature: 1.0°C ( 34°F)
Dewpoint: 0.0°C ( 32°F) [RH = 93%]
Pressure (altimeter):29.85 inches Hg (1010.9 mb)
Winds:variable direction winds at 5 MPH (4 knots; 2.1 m/s)
Visibility:10 or more sm (16+ km)
Ceiling:1200 feet AGL
Clouds: overcast cloud deck at 1200 feet AGL
QC Flag:automated observation with no human augmentation
Text:K6B9 210715Z AUTO 00000KT 10SM SCT011 OVC019 01/00 A2987 RMK AO2
Temperature: 1.0°C ( 34°F)
Dewpoint: 0.0°C ( 32°F) [RH = 93%]
Pressure (altimeter):29.87 inches Hg (1011.6 mb)
Winds:calm
Visibility:10 or more sm (16+ km)
Ceiling:1900 feet AGL
Clouds: scattered clouds at 1100 feet AGL, overcast cloud deck at 1900 feet AGL
QC Flag:automated observation with no human augmentation
Text:K6B9 210655Z AUTO 03004KT 10SM FEW011 OVC019 01/00 A2987 RMK AO2
Temperature: 1.0°C ( 34°F)
Dewpoint: 0.0°C ( 32°F) [RH = 93%]
Pressure (altimeter):29.87 inches Hg (1011.6 mb)
Winds:from the NNE (30 degrees) at 5 MPH (4 knots; 2.1 m/s)
Visibility:10 or more sm (16+ km)
Ceiling:1900 feet AGL
Clouds: few clouds at 1100 feet AGL, overcast cloud deck at 1900 feet AGL
QC Flag:automated observation with no human augmentation
Text:K6B9 210635Z AUTO 02004KT 10SM BKN010 OVC017 01/01 A2988 RMK AO2
Temperature: 1.0°C ( 34°F)
Dewpoint: 1.0°C ( 34°F) [RH = 100%]
Pressure (altimeter):29.88 inches Hg (1011.9 mb)
Winds:from the NNE (20 degrees) at 5 MPH (4 knots; 2.1 m/s)
Visibility:10 or more sm (16+ km)
Ceiling:1000 feet AGL
Clouds: broken clouds at 1000 feet AGL, overcast cloud deck at 1700 feet AGL
QC Flag:automated observation with no human augmentation
Text:K6B9 210615Z AUTO 00000KT 10SM BKN009 OVC015 01/01 A2989 RMK AO2
Temperature: 1.0°C ( 34°F)
Dewpoint: 1.0°C ( 34°F) [RH = 100%]
Pressure (altimeter):29.89 inches Hg (1012.3 mb)
Winds:calm
Visibility:10 or more sm (16+ km)
Ceiling:900 feet AGL
Clouds: broken clouds at 900 feet AGL, overcast cloud deck at 1500 feet AGL
QC Flag:automated observation with no human augmentation
Text:K6B9 210555Z AUTO 00000KT 10SM SCT010 OVC016 01/01 A2990 RMK AO2
Temperature: 1.0°C ( 34°F)
Dewpoint: 1.0°C ( 34°F) [RH = 100%]
Pressure (altimeter):29.90 inches Hg (1012.6 mb)
Winds:calm
Visibility:10 or more sm (16+ km)
Ceiling:1600 feet AGL
Clouds: scattered clouds at 1000 feet AGL, overcast cloud deck at 1600 feet AGL
QC Flag:automated observation with no human augmentation
Text:K6B9 210535Z AUTO 00000KT 10SM BKN013 OVC018 01/01 A2991 RMK AO2
Temperature: 1.0°C ( 34°F)
Dewpoint: 1.0°C ( 34°F) [RH = 100%]
Pressure (altimeter):29.91 inches Hg (1013.0 mb)
Winds:calm
Visibility:10 or more sm (16+ km)
Ceiling:1300 feet AGL
Clouds: broken clouds at 1300 feet AGL, overcast cloud deck at 1800 feet AGL
QC Flag:automated observation with no human augmentation
Text:K6B9 210515Z AUTO 00000KT 10SM BKN014 BKN018 OVC027 01/00 A2992 RMK AO2
Temperature: 1.0°C ( 34°F)
Dewpoint: 0.0°C ( 32°F) [RH = 93%]
Pressure (altimeter):29.92 inches Hg (1013.3 mb)
Winds:calm
Visibility:10 or more sm (16+ km)
Ceiling:1400 feet AGL
Clouds: broken clouds at 1400 feet AGL, broken clouds at 1800 feet AGL, overcast cloud deck at 2700 feet AGL
QC Flag:automated observation with no human augmentation
Text:K6B9 210455Z AUTO 00000KT 10SM -SN SCT016 OVC026 01/00 A2992 RMK AO2
Temperature: 1.0°C ( 34°F)
Dewpoint: 0.0°C ( 32°F) [RH = 93%]
Pressure (altimeter):29.92 inches Hg (1013.3 mb)
Winds:calm
Visibility:10 or more sm (16+ km)
Ceiling:2600 feet AGL
Clouds: scattered clouds at 1600 feet AGL, overcast cloud deck at 2600 feet AGL
Weather:-SN (light snow)
QC Flag:automated observation with no human augmentation
Text:K6B9 210435Z AUTO VRB05KT 10SM -SN FEW020 BKN025 OVC049 01/M00 A2992 RMK AO2
Temperature: 1.0°C ( 34°F)
Dewpoint: 0.0°C ( 32°F) [RH = 93%]
Pressure (altimeter):29.92 inches Hg (1013.3 mb)
Winds:variable direction winds at 6 MPH (5 knots; 2.6 m/s)
Visibility:10 or more sm (16+ km)
Ceiling:2500 feet AGL
Clouds: few clouds at 2000 feet AGL, broken clouds at 2500 feet AGL, overcast cloud deck at 4900 feet AGL
Weather:-SN (light snow)
QC Flag:automated observation with no human augmentation
Text:K6B9 210415Z AUTO VRB05KT 10SM SCT013 BKN019 OVC049 02/M00 A2993 RMK AO2
Temperature: 2.0°C ( 36°F)
Dewpoint: 0.0°C ( 32°F) [RH = 87%]
Pressure (altimeter):29.93 inches Hg (1013.6 mb)
Winds:variable direction winds at 6 MPH (5 knots; 2.6 m/s)
Visibility:10 or more sm (16+ km)
Ceiling:1900 feet AGL
Clouds: scattered clouds at 1300 feet AGL, broken clouds at 1900 feet AGL, overcast cloud deck at 4900 feet AGL
QC Flag:automated observation with no human augmentation
Text:K6B9 210355Z AUTO 00000KT 10SM OVC012 02/00 A2996 RMK AO2
Temperature: 2.0°C ( 36°F)
Dewpoint: 0.0°C ( 32°F) [RH = 87%]
Pressure (altimeter):29.96 inches Hg (1014.6 mb)
Winds:calm
Visibility:10 or more sm (16+ km)
Ceiling:1200 feet AGL
Clouds: overcast cloud deck at 1200 feet AGL
QC Flag:automated observation with no human augmentation
Text:K6B9 210335Z AUTO 00000KT 10SM OVC011 02/00 A2996 RMK AO2
Temperature: 2.0°C ( 36°F)
Dewpoint: 0.0°C ( 32°F) [RH = 87%]
Pressure (altimeter):29.96 inches Hg (1014.6 mb)
Winds:calm
Visibility:10 or more sm (16+ km)
Ceiling:1100 feet AGL
Clouds: overcast cloud deck at 1100 feet AGL
QC Flag:automated observation with no human augmentation
Text:K6B9 210315Z AUTO 00000KT 10SM OVC011 02/00 A2997 RMK AO2
Temperature: 2.0°C ( 36°F)
Dewpoint: 0.0°C ( 32°F) [RH = 87%]
Pressure (altimeter):29.97 inches Hg (1015.0 mb)
Winds:calm
Visibility:10 or more sm (16+ km)
Ceiling:1100 feet AGL
Clouds: overcast cloud deck at 1100 feet AGL
QC Flag:automated observation with no human augmentation
Text:K6B9 210255Z AUTO 36006KT 10SM OVC013 02/00 A2996 RMK AO2
Temperature: 2.0°C ( 36°F)
Dewpoint: 0.0°C ( 32°F) [RH = 87%]
Pressure (altimeter):29.96 inches Hg (1014.6 mb)
Winds:from the N (360 degrees) at 7 MPH (6 knots; 3.1 m/s)
Visibility:10 or more sm (16+ km)
Ceiling:1300 feet AGL
Clouds: overcast cloud deck at 1300 feet AGL
QC Flag:automated observation with no human augmentation